Bookmark and Share
Track history (hours):
 

Azure

Last reported at 2014-Apr-25 04:28 UTC. Time now 2014-Apr-25 05:46 UTC.
Position N 43°19' E 006°53'.

Length 289 m; draft 8.6 m.

Type: Passenger vessel. MMSI: 310610000.

NotesDate/timePositionNaut miles runAvg speedWind from/ knotsBaromVisibWave heightAir tempDewpointWater temp
2014-Apr-25 04:28N 43°19' E 006°53'1819.3
2014-Apr-25 03:33N 43°02' E 006°44'1818.5
2014-Apr-25 02:33N 42°52' E 006°23'1817.7
2014-Apr-25 01:33N 42°44' E 006°02'1918.9
2014-Apr-25 00:33N 42°35' E 005°39'1919.2
2014-Apr-24 23:33N 42°26' E 005°16'2019.7
2014-Apr-24 22:33N 42°17' E 004°53'2020.1
2014-Apr-24 21:33N 42°07' E 004°29'2019.6
2014-Apr-24 20:33N 41°58' E 004°05'1818.6
2014-Apr-24 19:33N 41°49' E 003°43'1817.9
2014-Apr-24 18:33N 41°41' E 003°22'1919.1
2014-Apr-24 17:33N 41°32' E 002°59'2019.8
2014-Apr-24 16:33N 41°23' E 002°36'1818.2
2014-Apr-24 15:33N 41°15' E 002°14'7 2.1
2014-Apr-24 12:27N 41°21' E 002°10'0 0.0
2014-Apr-24 10:08N 41°21' E 002°10'0 0.0
2014-Apr-24 09:14N 41°21' E 002°10'0 0.0
2014-Apr-24 08:32N 41°21' E 002°10'0 0.0
2014-Apr-24 06:32N 41°21' E 002°10'4 4.4
2014-Apr-24 05:33N 41°17' E 002°11'1514.8
2014-Apr-24 04:33N 41°04' E 002°02'1515.0
2014-Apr-24 03:33N 40°50' E 002°11'2524.9
2014-Apr-24 02:33N 40°36' E 001°44'1616.0
2014-Apr-24 01:33N 40°22' E 001°34'1615.9
2014-Apr-24 00:33N 40°08' E 001°25'1716.6
2014-Apr-23 23:33N 39°53' E 001°15'8516.2
2014-Apr-23 18:18N 38°37' E 000°25'3416.5
2014-Apr-23 16:13N 38°08' E 000°01'10817.4
2014-Apr-23 10:00N 36°48' W 001°30'18115.3 210 / 111021.910.8 0.517.014.418.0
2014-Apr-22 22:11N 35°59' W 005°07'1117.0
2014-Apr-22 21:33N 35°58' W 005°20'1515.4
2014-Apr-22 20:33N 35°54' W 005°38'116 6.3
2014-Apr-22 02:05N 36°32' W 007°54'1319.3
2014-Apr-22 01:25N 36°33' W 008°10'1619.0
2014-Apr-22 00:33N 36°32' W 008°30'9415.6
2014-Apr-21 18:31N 37°41' W 009°51'3120.5
2014-Apr-21 17:00N 38°12' W 009°54'12618.0 300 / 101008.827.0 0.516.011.418.0
2014-Apr-21 10:00N 40°18' W 010°06'31718.7 290 / 81006.210.8 0.514.5 9.716.0
2014-Apr-20 17:00N 45°24' W 008°12'12918.4 050 / 91009.610.8 0.513.2 6.515.0
2014-Apr-20 10:00N 47°12' W 006°30'25618.6 070 / 181006.310.8 0.512.0 5.614.0
2014-Apr-19 20:12N 50°13' W 001°56'1218.9
2014-Apr-19 19:33N 50°20' W 001°40'2020.1
2014-Apr-19 18:33N 50°29' W 001°12'1615.8
2014-Apr-19 17:33N 50°42' W 000°58'1414.1
2014-Apr-19 16:34N 50°48' W 001°18'7 6.4
2014-Apr-19 15:31N 50°54' W 001°24'0 0.0
2014-Apr-19 14:31N 50°54' W 001°24'0 0.0
2014-Apr-19 13:33N 50°54' W 001°24'0 0.0
2014-Apr-19 12:33N 50°54' W 001°24'0 0.0
2014-Apr-19 11:33N 50°54' W 001°24'0 0.0
2014-Apr-19 10:32N 50°54' W 001°24'0 0.0
2014-Apr-19 09:32N 50°54' W 001°24'0 0.1
2014-Apr-19 08:33N 50°53' W 001°24'0 0.1
2014-Apr-19 07:32N 50°54' W 001°24'0 0.0
2014-Apr-19 06:32N 50°54' W 001°24'0 0.0
2014-Apr-19 05:34N 50°54' W 001°24'5 5.0
2014-Apr-19 04:33N 50°50' W 001°19'10 9.5
2014-Apr-19 03:33N 50°45' W 001°06'1111.1
2014-Apr-19 02:34N 50°35' W 000°60'1110.9
2014-Apr-19 01:33N 50°28' W 001°14'1313.0
2014-Apr-19 00:33N 50°22' W 001°31'1616.1
2014-Apr-18 23:32N 50°15' W 001°55'8615.5
2014-Apr-18 18:00N 49°24' W 003°42'13014.4 060 / 141018.710.8 1.010.0 6.111.0
2014-Apr-18 09:00N 47°48' W 005°54'21614.4 050 / 171020.010.8 1.013.0 9.114.0
2014-Apr-17 18:00N 44°48' W 008°48'37215.8 060 / 251020.0 5.4 1.012.411.315.0
2014-Apr-16 18:26N 38°37' W 009°38'1314.8
2014-Apr-16 17:33N 38°38' W 009°22'1212.4
2014-Apr-16 16:33N 38°43' W 009°07'0 0.2
2014-Apr-16 15:31N 38°43' W 009°07'0 0.0
2014-Apr-16 14:31N 38°43' W 009°07'0 0.0
2014-Apr-16 13:33N 38°43' W 009°07'0 0.0
2014-Apr-16 12:33N 38°43' W 009°07'0 0.0
2014-Apr-16 11:32N 38°43' W 009°07'0 0.0
2014-Apr-16 10:32N 38°43' W 009°07'0 0.0
2014-Apr-16 09:31N 38°43' W 009°07'0 0.0
2014-Apr-16 08:31N 38°43' W 009°07'0 0.0
2014-Apr-16 07:33N 38°43' W 009°07'7 7.1
2014-Apr-16 06:33N 38°41' W 009°16'1313.1
2014-Apr-16 05:32N 38°31' W 009°28'1414.2
2014-Apr-16 04:33N 38°18' W 009°33'1514.7
2014-Apr-16 03:33N 38°04' W 009°39'1615.7
2014-Apr-16 02:33N 37°49' W 009°44'16515.6
2014-Apr-15 16:00N 35°12' W 010°48'   280 / 51015.910.8 18.414.119.0

Dump ship's entire track history

sailing weather and tide predictions

Azure — ZCEE2 — position and weather